sensor_id;sensor_type;location;lat;lon;timestamp;pressure;altitude;pressure_sealevel;temperature;humidity
59789;BME280;47353;51.614;5.530;2023-02-02T00:00:58;102068.25;;;7.47;97.61
59789;BME280;47353;51.614;5.530;2023-02-02T00:03:23;102055.97;;;7.49;98.08
59789;BME280;47353;51.614;5.530;2023-02-02T00:05:51;102055.97;;;7.49;97.67
59789;BME280;47353;51.614;5.530;2023-02-02T00:08:19;102057.88;;;7.49;97.54
59789;BME280;47353;51.614;5.530;2023-02-02T00:10:44;102059.53;;;7.50;97.32
59789;BME280;47353;51.614;5.530;2023-02-02T00:13:10;102052.59;;;7.47;97.55
59789;BME280;47353;51.614;5.530;2023-02-02T00:15:36;102050.47;;;7.49;97.73
59789;BME280;47353;51.614;5.530;2023-02-02T00:18:02;102049.44;;;7.44;97.61
59789;BME280;47353;51.614;5.530;2023-02-02T00:20:28;102046.09;;;7.42;97.69
59789;BME280;47353;51.614;5.530;2023-02-02T00:22:54;102048.63;;;7.43;97.94
59789;BME280;47353;51.614;5.530;2023-02-02T00:25:20;102052.03;;;7.39;97.92
59789;BME280;47353;51.614;5.530;2023-02-02T00:27:45;102059.47;;;7.38;98.20
59789;BME280;47353;51.614;5.530;2023-02-02T00:30:11;102059.00;;;7.41;98.22
59789;BME280;47353;51.614;5.530;2023-02-02T00:32:37;102058.63;;;7.38;97.98
59789;BME280;47353;51.614;5.530;2023-02-02T00:35:02;102064.13;;;7.38;97.87
59789;BME280;47353;51.614;5.530;2023-02-02T00:37:28;102054.13;;;7.43;97.50
59789;BME280;47353;51.614;5.530;2023-02-02T00:39:53;102066.59;;;7.46;97.55
59789;BME280;47353;51.614;5.530;2023-02-02T00:42:18;102067.22;;;7.48;97.00
59789;BME280;47353;51.614;5.530;2023-02-02T00:44:44;102064.06;;;7.44;97.50
59789;BME280;47353;51.614;5.530;2023-02-02T00:47:27;102066.19;;;7.42;97.56
59789;BME280;47353;51.614;5.530;2023-02-02T00:49:53;102063.84;;;7.46;97.30
59789;BME280;47353;51.614;5.530;2023-02-02T00:52:18;102064.06;;;7.44;97.32
59789;BME280;47353;51.614;5.530;2023-02-02T00:54:44;102071.19;;;7.52;96.55
59789;BME280;47353;51.614;5.530;2023-02-02T00:57:13;102075.25;;;7.49;97.02
59789;BME280;47353;51.614;5.530;2023-02-02T00:59:39;102066.31;;;7.54;96.75
59789;BME280;47353;51.614;5.530;2023-02-02T01:02:05;102061.25;;;7.51;96.08
59789;BME280;47353;51.614;5.530;2023-02-02T01:04:30;102068.44;;;7.52;96.21
59789;BME280;47353;51.614;5.530;2023-02-02T01:06:56;102066.91;;;7.56;95.48
59789;BME280;47353;51.614;5.530;2023-02-02T01:09:21;102065.22;;;7.55;95.57
59789;BME280;47353;51.614;5.530;2023-02-02T01:11:47;102065.69;;;7.52;96.03
59789;BME280;47353;51.614;5.530;2023-02-02T01:14:12;102069.06;;;7.54;95.83
59789;BME280;47353;51.614;5.530;2023-02-02T01:16:37;102057.19;;;7.53;95.54
59789;BME280;47353;51.614;5.530;2023-02-02T01:19:03;102071.94;;;7.59;95.25
59789;BME280;47353;51.614;5.530;2023-02-02T01:21:28;102063.56;;;7.54;95.81
59789;BME280;47353;51.614;5.530;2023-02-02T01:23:53;102055.06;;;7.55;95.55
59789;BME280;47353;51.614;5.530;2023-02-02T01:26:19;102061.38;;;7.56;95.35
59789;BME280;47353;51.614;5.530;2023-02-02T01:28:45;102063.09;;;7.57;95.24
59789;BME280;47353;51.614;5.530;2023-02-02T01:31:14;102058.03;;;7.54;95.12
59789;BME280;47353;51.614;5.530;2023-02-02T01:33:40;102060.56;;;7.55;95.34
59789;BME280;47353;51.614;5.530;2023-02-02T01:36:10;102065.91;;;7.50;95.58
59789;BME280;47353;51.614;5.530;2023-02-02T01:38:36;102066.75;;;7.51;95.66
59789;BME280;47353;51.614;5.530;2023-02-02T01:41:01;102065.44;;;7.53;95.51
59789;BME280;47353;51.614;5.530;2023-02-02T01:46:20;102069.53;;;7.51;95.91
59789;BME280;47353;51.614;5.530;2023-02-02T01:51:17;102068.25;;;7.47;95.89
59789;BME280;47353;51.614;5.530;2023-02-02T01:53:45;102063.16;;;7.50;95.50
59789;BME280;47353;51.614;5.530;2023-02-02T01:56:14;102052.75;;;7.52;95.48
59789;BME280;47353;51.614;5.530;2023-02-02T01:58:42;102068.66;;;7.50;96.03
59789;BME280;47353;51.614;5.530;2023-02-02T02:01:10;102068.03;;;7.48;95.92
59789;BME280;47353;51.614;5.530;2023-02-02T02:03:36;102077.16;;;7.49;95.74
59789;BME280;47353;51.614;5.530;2023-02-02T02:06:07;102064.22;;;7.49;96.09
59789;BME280;47353;51.614;5.530;2023-02-02T02:08:58;102063.84;;;7.46;96.07
59789;BME280;47353;51.614;5.530;2023-02-02T02:11:25;102061.72;;;7.48;95.84
59789;BME280;47353;51.614;5.530;2023-02-02T02:13:52;102065.06;;;7.50;95.80
59789;BME280;47353;51.614;5.530;2023-02-02T02:28:55;102067.22;;;7.48;95.92
59789;BME280;47353;51.614;5.530;2023-02-02T02:34:38;102070.47;;;7.38;96.65
59789;BME280;47353;51.614;5.530;2023-02-02T02:37:47;102062.97;;;7.45;96.25
59789;BME280;47353;51.614;5.530;2023-02-02T02:43:10;102066.81;;;7.44;96.07
59789;BME280;47353;51.614;5.530;2023-02-02T02:45:37;102064.97;;;7.38;96.55
59789;BME280;47353;51.614;5.530;2023-02-02T02:48:03;102067.38;;;7.28;97.11
59789;BME280;47353;51.614;5.530;2023-02-02T02:50:29;102079.88;;;7.31;97.31
59789;BME280;47353;51.614;5.530;2023-02-02T02:53:05;102076.50;;;7.29;97.66
59789;BME280;47353;51.614;5.530;2023-02-02T02:55:53;102075.88;;;7.27;97.48
59789;BME280;47353;51.614;5.530;2023-02-02T02:58:46;102072.88;;;7.28;97.49
59789;BME280;47353;51.614;5.530;2023-02-02T03:03:54;102066.94;;;7.31;97.52
59789;BME280;47353;51.614;5.530;2023-02-02T03:09:03;102057.97;;;7.36;96.58
59789;BME280;47353;51.614;5.530;2023-02-02T03:11:30;102050.41;;;7.31;96.87
59789;BME280;47353;51.614;5.530;2023-02-02T03:13:55;102059.34;;;7.27;97.18
59789;BME280;47353;51.614;5.530;2023-02-02T03:16:21;102062.72;;;7.29;97.13
59789;BME280;47353;51.614;5.530;2023-02-02T03:18:46;102072.53;;;7.25;97.26
59789;BME280;47353;51.614;5.530;2023-02-02T03:21:12;102062.31;;;7.25;97.43
59789;BME280;47353;51.614;5.530;2023-02-02T03:23:37;102057.00;;;7.30;97.17
59789;BME280;47353;51.614;5.530;2023-02-02T03:26:03;102048.09;;;7.28;97.13
59789;BME280;47353;51.614;5.530;2023-02-02T03:28:29;102050.81;;;7.35;96.64
59789;BME280;47353;51.614;5.530;2023-02-02T03:30:57;102047.50;;;7.26;97.11
59789;BME280;47353;51.614;5.530;2023-02-02T03:33:25;102050.63;;;7.30;97.09
59789;BME280;47353;51.614;5.530;2023-02-02T03:35:51;102059.28;;;7.33;96.65
59789;BME280;47353;51.614;5.530;2023-02-02T03:38:16;102063.19;;;7.26;97.22
59789;BME280;47353;51.614;5.530;2023-02-02T03:40:41;102069.53;;;7.26;97.27
59789;BME280;47353;51.614;5.530;2023-02-02T03:43:07;102065.94;;;7.26;97.43
59789;BME280;47353;51.614;5.530;2023-02-02T03:45:33;102068.47;;;7.27;97.27
59789;BME280;47353;51.614;5.530;2023-02-02T03:48:02;102064.84;;;7.27;97.50
59789;BME280;47353;51.614;5.530;2023-02-02T03:50:28;102079.47;;;7.27;96.92
59789;BME280;47353;51.614;5.530;2023-02-02T03:52:53;102077.94;;;7.31;97.21
59789;BME280;47353;51.614;5.530;2023-02-02T03:55:20;102086.44;;;7.30;97.51
59789;BME280;47353;51.614;5.530;2023-02-02T03:57:45;102081.16;;;7.28;97.43
59789;BME280;47353;51.614;5.530;2023-02-02T04:00:11;102072.88;;;7.28;97.42
59789;BME280;47353;51.614;5.530;2023-02-02T04:02:37;102080.03;;;7.36;96.74
59789;BME280;47353;51.614;5.530;2023-02-02T04:05:02;102083.44;;;7.31;97.04
59789;BME280;47353;51.614;5.530;2023-02-02T04:07:28;102081.78;;;7.30;97.23
59789;BME280;47353;51.614;5.530;2023-02-02T04:09:53;102080.09;;;7.29;97.27
59789;BME280;47353;51.614;5.530;2023-02-02T04:12:18;102087.50;;;7.29;97.67
59789;BME280;47353;51.614;5.530;2023-02-02T04:14:44;102093.66;;;7.31;97.32
59789;BME280;47353;51.614;5.530;2023-02-02T04:17:09;102097.84;;;7.33;97.59
59789;BME280;47353;51.614;5.530;2023-02-02T04:19:35;102101.81;;;7.37;97.24
59789;BME280;47353;51.614;5.530;2023-02-02T04:22:01;102096.09;;;7.39;97.05
59789;BME280;47353;51.614;5.530;2023-02-02T04:24:26;102103.75;;;7.37;97.38
59789;BME280;47353;51.614;5.530;2023-02-02T04:26:51;102106.75;;;7.35;97.80
59789;BME280;47353;51.614;5.530;2023-02-02T04:29:17;102105.44;;;7.38;97.68
59789;BME280;47353;51.614;5.530;2023-02-02T04:31:42;102106.50;;;7.37;97.56
59789;BME280;47353;51.614;5.530;2023-02-02T04:34:07;102103.09;;;7.41;97.38
59789;BME280;47353;51.614;5.530;2023-02-02T04:36:33;102102.91;;;7.36;97.64
59789;BME280;47353;51.614;5.530;2023-02-02T04:38:58;102111.78;;;7.38;97.29
59789;BME280;47353;51.614;5.530;2023-02-02T04:41:24;102110.31;;;7.36;97.62
59789;BME280;47353;51.614;5.530;2023-02-02T04:43:49;102105.88;;;7.35;97.57
59789;BME280;47353;51.614;5.530;2023-02-02T04:46:14;102090.81;;;7.37;96.84
59789;BME280;47353;51.614;5.530;2023-02-02T04:48:42;102095.09;;;7.33;96.94
59789;BME280;47353;51.614;5.530;2023-02-02T04:51:10;102093.19;;;7.34;96.83
59789;BME280;47353;51.614;5.530;2023-02-02T04:53:36;102081.56;;;7.32;96.92
59789;BME280;47353;51.614;5.530;2023-02-02T04:56:10;102085.31;;;7.37;96.48
59789;BME280;47353;51.614;5.530;2023-02-02T04:58:36;102092.34;;;7.33;96.68
59789;BME280;47353;51.614;5.530;2023-02-02T05:01:14;102098.47;;;7.35;96.69
59789;BME280;47353;51.614;5.530;2023-02-02T05:03:40;102104.44;;;7.32;97.02
59789;BME280;47353;51.614;5.530;2023-02-02T05:06:06;102105.25;;;7.33;97.17
59789;BME280;47353;51.614;5.530;2023-02-02T05:08:31;102117.31;;;7.38;96.60
59789;BME280;47353;51.614;5.530;2023-02-02T05:10:57;102107.56;;;7.36;97.01
59789;BME280;47353;51.614;5.530;2023-02-02T05:13:22;102110.31;;;7.36;97.06
59789;BME280;47353;51.614;5.530;2023-02-02T05:15:48;102112.25;;;7.35;97.14
59789;BME280;47353;51.614;5.530;2023-02-02T05:18:13;102109.28;;;7.37;97.15
59789;BME280;47353;51.614;5.530;2023-02-02T05:20:39;102111.56;;;7.40;96.66
59789;BME280;47353;51.614;5.530;2023-02-02T05:23:04;102113.25;;;7.41;96.87
59789;BME280;47353;51.614;5.530;2023-02-02T05:25:30;102107.06;;;7.45;96.14
59789;BME280;47353;51.614;5.530;2023-02-02T05:27:55;102100.97;;;7.43;96.38
59789;BME280;47353;51.614;5.530;2023-02-02T05:30:20;102115.53;;;7.44;96.48
59789;BME280;47353;51.614;5.530;2023-02-02T05:32:46;102118.53;;;7.42;96.59
59789;BME280;47353;51.614;5.530;2023-02-02T05:35:11;102114.94;;;7.42;96.61
59789;BME280;47353;51.614;5.530;2023-02-02T05:37:37;102117.03;;;7.46;96.63
59789;BME280;47353;51.614;5.530;2023-02-02T05:40:03;102110.25;;;7.42;96.36
59789;BME280;47353;51.614;5.530;2023-02-02T05:42:28;102121.22;;;7.49;96.21
59789;BME280;47353;51.614;5.530;2023-02-02T05:44:54;102122.75;;;7.45;96.75
59789;BME280;47353;51.614;5.530;2023-02-02T05:47:19;102123.34;;;7.47;96.90
59789;BME280;47353;51.614;5.530;2023-02-02T05:49:45;102112.56;;;7.45;96.98
59789;BME280;47353;51.614;5.530;2023-02-02T05:52:15;102123.34;;;7.47;97.12
59789;BME280;47353;51.614;5.530;2023-02-02T05:54:43;102113.25;;;7.41;97.32
59789;BME280;47353;51.614;5.530;2023-02-02T05:57:08;102113.19;;;7.47;97.01
59789;BME280;47353;51.614;5.530;2023-02-02T05:59:34;102117.84;;;7.47;96.87
59789;BME280;47353;51.614;5.530;2023-02-02T06:01:59;102118.47;;;7.49;97.19
59789;BME280;47353;51.614;5.530;2023-02-02T06:04:24;102126.75;;;7.49;97.25
59789;BME280;47353;51.614;5.530;2023-02-02T06:06:50;102119.34;;;7.49;97.23
59789;BME280;47353;51.614;5.530;2023-02-02T06:09:15;102119.47;;;7.54;96.84
59789;BME280;47353;51.614;5.530;2023-02-02T06:11:42;102102.34;;;7.52;96.64
59789;BME280;47353;51.614;5.530;2023-02-02T06:14:08;102096.09;;;7.39;97.07
59789;BME280;47353;51.614;5.530;2023-02-02T06:16:33;102113.66;;;7.44;97.14
59789;BME280;47353;51.614;5.530;2023-02-02T06:18:59;102119.59;;;7.41;97.23
59789;BME280;47353;51.614;5.530;2023-02-02T06:21:24;102126.56;;;7.44;97.21
59789;BME280;47353;51.614;5.530;2023-02-02T06:23:50;102127.41;;;7.44;97.14
59789;BME280;47353;51.614;5.530;2023-02-02T06:26:16;102137.00;;;7.42;97.57
59789;BME280;47353;51.614;5.530;2023-02-02T06:28:46;102137.22;;;7.40;97.74
59789;BME280;47353;51.614;5.530;2023-02-02T06:31:12;102140.78;;;7.41;97.83
59789;BME280;47353;51.614;5.530;2023-02-02T06:33:37;102131.41;;;7.48;97.04
59789;BME280;47353;51.614;5.530;2023-02-02T06:36:04;102133.16;;;7.43;97.04
59789;BME280;47353;51.614;5.530;2023-02-02T06:38:30;102137.38;;;7.45;96.92
59789;BME280;47353;51.614;5.530;2023-02-02T06:40:59;102135.50;;;7.39;97.14
59789;BME280;47353;51.614;5.530;2023-02-02T06:43:26;102131.91;;;7.39;96.95
59789;BME280;47353;51.614;5.530;2023-02-02T06:45:51;102139.84;;;7.29;97.73
59789;BME280;47353;51.614;5.530;2023-02-02T06:48:16;102145.97;;;7.31;97.83
59789;BME280;47353;51.614;5.530;2023-02-02T06:50:42;102146.56;;;7.33;97.74
59789;BME280;47353;51.614;5.530;2023-02-02T06:53:07;102152.94;;;7.33;97.60
59789;BME280;47353;51.614;5.530;2023-02-02T06:55:32;102149.31;;;7.33;97.46
59789;BME280;47353;51.614;5.530;2023-02-02T06:57:59;102160.97;;;7.35;98.18
59789;BME280;47353;51.614;5.530;2023-02-02T07:00:26;102158.00;;;7.36;98.06
59789;BME280;47353;51.614;5.530;2023-02-02T07:02:51;102159.91;;;7.36;98.23
59789;BME280;47353;51.614;5.530;2023-02-02T07:05:17;102161.38;;;7.38;97.99
59789;BME280;47353;51.614;5.530;2023-02-02T07:07:50;102157.31;;;7.41;97.83
59789;BME280;47353;51.614;5.530;2023-02-02T07:10:16;102163.06;;;7.39;97.99
59789;BME280;47353;51.614;5.530;2023-02-02T07:12:43;102167.94;;;7.37;98.33
59789;BME280;47353;51.614;5.530;2023-02-02T07:15:08;102163.50;;;7.36;98.33
59789;BME280;47353;51.614;5.530;2023-02-02T07:17:34;102161.59;;;7.37;98.57
59789;BME280;47353;51.614;5.530;2023-02-02T07:19:59;102169.22;;;7.35;98.85
59789;BME280;47353;51.614;5.530;2023-02-02T07:22:25;102169.47;;;7.33;99.16
59789;BME280;47353;51.614;5.530;2023-02-02T07:24:50;102179.63;;;7.33;99.66
59789;BME280;47353;51.614;5.530;2023-02-02T07:27:15;102174.34;;;7.31;99.30
59789;BME280;47353;51.614;5.530;2023-02-02T07:29:41;102179.84;;;7.31;99.95
59789;BME280;47353;51.614;5.530;2023-02-02T07:32:06;102160.19;;;7.28;99.81
59789;BME280;47353;51.614;5.530;2023-02-02T07:34:31;102177.53;;;7.28;99.78
59789;BME280;47353;51.614;5.530;2023-02-02T07:36:57;102173.09;;;7.27;99.76
59789;BME280;47353;51.614;5.530;2023-02-02T07:39:22;102169.13;;;7.23;100.00
59789;BME280;47353;51.614;5.530;2023-02-02T07:41:48;102181.81;;;7.24;100.00
59789;BME280;47353;51.614;5.530;2023-02-02T07:44:14;102180.75;;;7.25;100.00
59789;BME280;47353;51.614;5.530;2023-02-02T07:46:43;102174.41;;;7.25;100.00
59789;BME280;47353;51.614;5.530;2023-02-02T07:49:14;102186.91;;;7.21;100.00
59789;BME280;47353;51.614;5.530;2023-02-02T07:51:40;102192.84;;;7.24;100.00
59789;BME280;47353;51.614;5.530;2023-02-02T07:54:06;102204.69;;;7.25;100.00
59789;BME280;47353;51.614;5.530;2023-02-02T07:56:31;102197.25;;;7.25;100.00
59789;BME280;47353;51.614;5.530;2023-02-02T07:58:57;102202.78;;;7.25;100.00
59789;BME280;47353;51.614;5.530;2023-02-02T08:01:24;102200.66;;;7.27;100.00
59789;BME280;47353;51.614;5.530;2023-02-02T08:03:51;102195.13;;;7.27;100.00
59789;BME280;47353;51.614;5.530;2023-02-02T08:06:25;102196.59;;;7.30;100.00
59789;BME280;47353;51.614;5.530;2023-02-02T08:08:52;102188.75;;;7.33;100.00
59789;BME280;47353;51.614;5.530;2023-02-02T08:11:20;102202.69;;;7.38;100.00
59789;BME280;47353;51.614;5.530;2023-02-02T08:13:50;102205.41;;;7.45;100.00
59789;BME280;47353;51.614;5.530;2023-02-02T08:16:16;102209.84;;;7.46;100.00
59789;BME280;47353;51.614;5.530;2023-02-02T08:18:42;102214.44;;;7.52;100.00
59789;BME280;47353;51.614;5.530;2023-02-02T08:21:08;102205.50;;;7.56;99.70
59789;BME280;47353;51.614;5.530;2023-02-02T08:23:38;102209.13;;;7.57;99.63
59789;BME280;47353;51.614;5.530;2023-02-02T08:26:19;102211.03;;;7.56;100.00
59789;BME280;47353;51.614;5.530;2023-02-02T08:28:48;102213.16;;;7.54;100.00
59789;BME280;47353;51.614;5.530;2023-02-02T08:31:35;102213.97;;;7.61;99.81
59789;BME280;47353;51.614;5.530;2023-02-02T08:34:01;102206.53;;;7.62;99.54
59789;BME280;47353;51.614;5.530;2023-02-02T08:36:28;102212.66;;;7.64;98.48
59789;BME280;47353;51.614;5.530;2023-02-02T08:38:54;102220.69;;;7.65;98.56
59789;BME280;47353;51.614;5.530;2023-02-02T08:41:22;102216.31;;;7.58;98.14
59789;BME280;47353;51.614;5.530;2023-02-02T08:43:48;102241.69;;;7.66;98.30
59789;BME280;47353;51.614;5.530;2023-02-02T08:46:15;102253.75;;;7.65;98.29
59789;BME280;47353;51.614;5.530;2023-02-02T08:48:41;102252.53;;;7.61;98.13
59789;BME280;47353;51.614;5.530;2023-02-02T08:51:09;102243.19;;;7.62;97.68
59789;BME280;47353;51.614;5.530;2023-02-02T08:53:35;102260.78;;;7.61;97.75
59789;BME280;47353;51.614;5.530;2023-02-02T08:56:12;102255.28;;;7.61;98.06
59789;BME280;47353;51.614;5.530;2023-02-02T08:58:38;102267.53;;;7.65;98.00
59789;BME280;47353;51.614;5.530;2023-02-02T09:01:12;102283.47;;;7.63;97.69
59789;BME280;47353;51.614;5.530;2023-02-02T09:03:37;102286.59;;;7.67;97.80
59789;BME280;47353;51.614;5.530;2023-02-02T09:06:11;102281.72;;;7.69;97.44
59789;BME280;47353;51.614;5.530;2023-02-02T09:08:37;102295.47;;;7.75;96.47
59789;BME280;47353;51.614;5.530;2023-02-02T09:11:07;102300.13;;;7.75;96.96
59789;BME280;47353;51.614;5.530;2023-02-02T09:13:34;102306.50;;;7.75;97.00
59789;BME280;47353;51.614;5.530;2023-02-02T09:16:01;102301.34;;;7.79;96.65
59789;BME280;47353;51.614;5.530;2023-02-02T09:18:27;102296.91;;;7.78;96.94
59789;BME280;47353;51.614;5.530;2023-02-02T09:20:52;102306.59;;;7.87;96.97
59789;BME280;47353;51.614;5.530;2023-02-02T09:23:17;102308.53;;;7.86;96.38
59789;BME280;47353;51.614;5.530;2023-02-02T09:25:43;102301.66;;;7.95;95.90
59789;BME280;47353;51.614;5.530;2023-02-02T09:28:08;102301.66;;;7.95;95.65
59789;BME280;47353;51.614;5.530;2023-02-02T09:30:33;102302.66;;;8.01;96.14
59789;BME280;47353;51.614;5.530;2023-02-02T09:32:59;102315.78;;;8.05;95.32
59789;BME280;47353;51.614;5.530;2023-02-02T09:35:24;102324.47;;;8.09;95.71
59789;BME280;47353;51.614;5.530;2023-02-02T09:37:49;102319.13;;;8.14;95.02
59789;BME280;47353;51.614;5.530;2023-02-02T09:40:17;102318.91;;;8.15;94.21
59789;BME280;47353;51.614;5.530;2023-02-02T09:42:57;102326.06;;;8.23;94.02
59789;BME280;47353;51.614;5.530;2023-02-02T09:45:46;102330.19;;;8.38;93.77
59789;BME280;47353;51.614;5.530;2023-02-02T09:48:37;102333.19;;;8.55;92.83
59789;BME280;47353;51.614;5.530;2023-02-02T09:51:12;102325.16;;;8.72;91.55
59789;BME280;47353;51.614;5.530;2023-02-02T09:53:48;102344.34;;;8.85;91.05
59789;BME280;47353;51.614;5.530;2023-02-02T09:56:23;102340.91;;;8.89;91.17
59789;BME280;47353;51.614;5.530;2023-02-02T09:58:54;102338.38;;;8.88;90.92
59789;BME280;47353;51.614;5.530;2023-02-02T10:01:24;102345.56;;;8.89;89.60
59789;BME280;47353;51.614;5.530;2023-02-02T10:06:37;102349.41;;;8.88;91.20
59789;BME280;47353;51.614;5.530;2023-02-02T10:09:32;102349.47;;;8.99;91.29
59789;BME280;47353;51.614;5.530;2023-02-02T10:12:56;102352.25;;;8.99;90.80
59789;BME280;47353;51.614;5.530;2023-02-02T10:23:30;102356.38;;;8.90;90.20
59789;BME280;47353;51.614;5.530;2023-02-02T10:26:07;102360.00;;;8.91;90.42
59789;BME280;47353;51.614;5.530;2023-02-02T10:31:36;102368.56;;;9.01;90.78
59789;BME280;47353;51.614;5.530;2023-02-02T10:45:01;102366.28;;;8.98;90.15
59789;BME280;47353;51.614;5.530;2023-02-02T10:47:32;102375.13;;;9.06;90.52
59789;BME280;47353;51.614;5.530;2023-02-02T10:50:17;102374.50;;;9.04;89.95
59789;BME280;47353;51.614;5.530;2023-02-02T10:52:46;102370.88;;;9.04;89.07
59789;BME280;47353;51.614;5.530;2023-02-02T11:00:29;102377.72;;;9.19;88.73
59789;BME280;47353;51.614;5.530;2023-02-02T11:02:56;102388.53;;;9.21;88.98
59789;BME280;47353;51.614;5.530;2023-02-02T11:05:26;102388.53;;;9.21;88.15
59789;BME280;47353;51.614;5.530;2023-02-02T11:08:37;102394.22;;;9.26;88.26
59789;BME280;47353;51.614;5.530;2023-02-02T11:11:24;102379.03;;;9.17;87.40
59789;BME280;47353;51.614;5.530;2023-02-02T11:16:33;102382.56;;;9.06;87.96
59789;BME280;47353;51.614;5.530;2023-02-02T11:18:59;102378.41;;;8.97;87.57
59789;BME280;47353;51.614;5.530;2023-02-02T11:21:32;102378.63;;;8.95;88.44
59789;BME280;47353;51.614;5.530;2023-02-02T11:24:03;102375.72;;;8.90;88.94
59789;BME280;47353;51.614;5.530;2023-02-02T11:27:03;102382.78;;;8.86;88.25
59789;BME280;47353;51.614;5.530;2023-02-02T11:29:44;102378.56;;;8.84;88.54
59789;BME280;47353;51.614;5.530;2023-02-02T11:32:19;102377.78;;;8.77;88.58
59789;BME280;47353;51.614;5.530;2023-02-02T11:37:30;102376.47;;;8.79;88.78
59789;BME280;47353;51.614;5.530;2023-02-02T11:42:53;102385.59;;;8.80;88.73
59789;BME280;47353;51.614;5.530;2023-02-02T11:48:19;102378.69;;;8.89;88.25
59789;BME280;47353;51.614;5.530;2023-02-02T11:50:50;102372.41;;;8.82;87.69
59789;BME280;47353;51.614;5.530;2023-02-02T11:53:33;102369.03;;;8.80;88.12
59789;BME280;47353;51.614;5.530;2023-02-02T11:56:03;102368.50;;;8.71;88.16
59789;BME280;47353;51.614;5.530;2023-02-02T11:58:46;102369.19;;;8.67;88.52
59789;BME280;47353;51.614;5.530;2023-02-02T12:01:25;102374.47;;;8.68;89.07
59789;BME280;47353;51.614;5.530;2023-02-02T12:03:59;102390.94;;;8.75;88.66
59789;BME280;47353;51.614;5.530;2023-02-02T12:06:33;102368.72;;;8.70;88.72
59789;BME280;47353;51.614;5.530;2023-02-02T12:09:01;102357.22;;;8.73;88.87
59789;BME280;47353;51.614;5.530;2023-02-02T12:11:40;102373.84;;;8.66;90.63
59789;BME280;47353;51.614;5.530;2023-02-02T12:14:40;102370.16;;;8.54;90.78
59789;BME280;47353;51.614;5.530;2023-02-02T12:19:48;102375.94;;;8.46;91.67
59789;BME280;47353;51.614;5.530;2023-02-02T12:36:20;102369.41;;;8.65;90.04
59789;BME280;47353;51.614;5.530;2023-02-02T12:39:12;102368.72;;;8.70;89.21
59789;BME280;47353;51.614;5.530;2023-02-02T12:42:01;102364.50;;;8.67;90.15
59789;BME280;47353;51.614;5.530;2023-02-02T12:52:32;102355.06;;;8.75;89.80
59789;BME280;47353;51.614;5.530;2023-02-02T12:55:08;102364.25;;;8.69;91.21
59789;BME280;47353;51.614;5.530;2023-02-02T12:57:47;102356.44;;;8.66;92.17
59789;BME280;47353;51.614;5.530;2023-02-02T13:08:08;102338.47;;;8.38;96.65
59789;BME280;47353;51.614;5.530;2023-02-02T13:10:39;102350.72;;;8.42;96.83
59789;BME280;47353;51.614;5.530;2023-02-02T13:13:16;102346.44;;;8.47;95.91
59789;BME280;47353;51.614;5.530;2023-02-02T13:15:51;102350.03;;;8.47;96.73
59789;BME280;47353;51.614;5.530;2023-02-02T13:18:29;102354.41;;;8.55;97.93
59789;BME280;47353;51.614;5.530;2023-02-02T13:21:00;102353.06;;;8.39;99.39
59789;BME280;47353;51.614;5.530;2023-02-02T13:23:42;102350.22;;;8.27;99.75
59789;BME280;47353;51.614;5.530;2023-02-02T13:26:20;102357.19;;;8.30;98.55
59789;BME280;47353;51.614;5.530;2023-02-02T13:28:57;102344.69;;;8.27;98.73
59789;BME280;47353;51.614;5.530;2023-02-02T13:31:33;102358.50;;;8.27;98.68
59789;BME280;47353;51.614;5.530;2023-02-02T13:36:40;102354.31;;;8.18;99.35
59789;BME280;47353;51.614;5.530;2023-02-02T13:39:18;102354.78;;;8.09;100.00
59789;BME280;47353;51.614;5.530;2023-02-02T13:41:46;102356.09;;;8.06;100.00
59789;BME280;47353;51.614;5.530;2023-02-02T13:44:30;102347.69;;;7.95;100.00
59789;BME280;47353;51.614;5.530;2023-02-02T13:47:02;102343.84;;;7.96;100.00
59789;BME280;47353;51.614;5.530;2023-02-02T13:49:36;102333.03;;;7.94;100.00
59789;BME280;47353;51.614;5.530;2023-02-02T13:52:15;102347.00;;;7.99;100.00
59789;BME280;47353;51.614;5.530;2023-02-02T13:57:40;102350.63;;;8.00;100.00
59789;BME280;47353;51.614;5.530;2023-02-02T14:07:47;102359.84;;;7.87;100.00
59789;BME280;47353;51.614;5.530;2023-02-02T14:13:20;102358.72;;;7.95;100.00
59789;BME280;47353;51.614;5.530;2023-02-02T14:16:06;102365.53;;;7.92;100.00
59789;BME280;47353;51.614;5.530;2023-02-02T14:24:14;102369.34;;;7.91;100.00
59789;BME280;47353;51.614;5.530;2023-02-02T14:26:54;102372.72;;;7.93;100.00
59789;BME280;47353;51.614;5.530;2023-02-02T14:34:41;102381.13;;;7.74;100.00
59789;BME280;47353;51.614;5.530;2023-02-02T14:45:30;102384.03;;;7.48;100.00
59789;BME280;47353;51.614;5.530;2023-02-02T14:48:17;102387.66;;;7.42;100.00
59789;BME280;47353;51.614;5.530;2023-02-02T14:50:50;102399.31;;;7.37;100.00
59789;BME280;47353;51.614;5.530;2023-02-02T14:53:37;102395.31;;;7.27;100.00
59789;BME280;47353;51.614;5.530;2023-02-02T15:03:44;102397.69;;;7.23;100.00
59789;BME280;47353;51.614;5.530;2023-02-02T15:06:36;102397.06;;;7.21;100.00
59789;BME280;47353;51.614;5.530;2023-02-02T15:19:44;102404.97;;;6.98;100.00
59789;BME280;47353;51.614;5.530;2023-02-02T15:22:31;102403.25;;;6.97;100.00
59789;BME280;47353;51.614;5.530;2023-02-02T15:25:04;102402.41;;;6.97;100.00
59789;BME280;47353;51.614;5.530;2023-02-02T15:27:32;102406.00;;;6.97;100.00
59789;BME280;47353;51.614;5.530;2023-02-02T15:30:03;102396.28;;;6.95;100.00
59789;BME280;47353;51.614;5.530;2023-02-02T15:32:31;102401.13;;;6.93;100.00
59789;BME280;47353;51.614;5.530;2023-02-02T15:35:02;102402.22;;;6.92;100.00
59789;BME280;47353;51.614;5.530;2023-02-02T15:37:35;102398.00;;;6.89;100.00
59789;BME280;47353;51.614;5.530;2023-02-02T15:40:20;102406.22;;;6.96;100.00
59789;BME280;47353;51.614;5.530;2023-02-02T15:43:05;102406.66;;;6.93;100.00
59789;BME280;47353;51.614;5.530;2023-02-02T15:45:37;102415.53;;;6.95;100.00
59789;BME280;47353;51.614;5.530;2023-02-02T15:48:28;102411.31;;;6.92;100.00